Time;durP1;ratioP1;P1;durP2;ratioP2;P2;SDS_P1;SDS_P2;PMS_P1;PMS_P2;Temp;Humidity;BMP_temperature;BMP_pressure;BME280_temperature;BME280_humidity;BME280_pressure;Samples;Min_cycle;Max_cycle;Signal;HPM_P1;HPM_P2
2022/04/22 00:00:48;;;;;;;10.00;8.30;;;;;;;;;;5044916;28;20063;-82
2022/04/22 00:03:16;;;;;;;7.53;6.90;;;;;;;;;;5038216;28;20676;-78
2022/04/22 00:05:44;;;;;;;9.50;7.95;;;;;;;;;;5056695;28;20491;-77
2022/04/22 00:08:12;;;;;;;8.75;7.72;;;;;;;;;;5044800;28;20509;-78
2022/04/22 00:11:29;;;;;;;8.10;6.90;;;;;;;;;;5065712;28;20056;-77
2022/04/22 00:13:29;;;;;;;7.50;6.00;;;;;;;;;;5065542;28;20048;-76
2022/04/22 00:15:56;;;;;;;9.90;6.05;;;;;;;;;;5065885;28;20049;-76
2022/04/22 00:18:26;;;;;;;7.68;6.72;;;;;;;;;;5068660;28;20052;-75
2022/04/22 00:20:58;;;;;;;7.18;6.25;;;;;;;;;;5048202;28;20053;-76
2022/04/22 00:23:27;;;;;;;13.43;7.03;;;;;;;;;;5081520;28;20751;-76
2022/04/22 00:25:55;;;;;;;10.40;7.90;;;;;;;;;;5068064;28;20064;-76
2022/04/22 00:28:24;;;;;;;8.43;7.35;;;;;;;;;;5049114;28;20044;-75
2022/04/22 00:30:52;;;;;;;8.55;7.28;;;;;;;;;;5036816;28;20048;-75
2022/04/22 00:33:20;;;;;;;12.43;7.13;;;;;;;;;;5066157;28;20759;-76
2022/04/22 00:35:48;;;;;;;12.93;6.93;;;;;;;;;;5077827;28;20488;-75
2022/04/22 00:38:16;;;;;;;10.07;6.20;;;;;;;;;;5071998;28;20138;-76
2022/04/22 00:40:44;;;;;;;7.70;6.43;;;;;;;;;;5078061;28;20060;-75
2022/04/22 00:43:23;;;;;;;8.95;6.60;;;;;;;;;;5050420;28;20064;-76
2022/04/22 00:45:53;;;;;;;10.15;7.15;;;;;;;;;;5047535;28;20056;-76
2022/04/22 00:48:21;;;;;;;7.55;6.70;;;;;;;;;;5057868;28;20694;-76
2022/04/22 00:50:49;;;;;;;8.10;7.00;;;;;;;;;;5067237;28;20040;-76
2022/04/22 00:53:17;;;;;;;7.10;6.40;;;;;;;;;;5049847;28;20515;-76
2022/04/22 00:55:46;;;;;;;9.00;7.93;;;;;;;;;;5070878;28;20048;-76
2022/04/22 00:58:14;;;;;;;10.27;6.57;;;;;;;;;;5047265;28;20051;-76
2022/04/22 01:00:55;;;;;;;11.15;7.68;;;;;;;;;;5066192;28;20438;-76
2022/04/22 01:11:59;;;;;;;9.45;7.25;;;;;;;;;;5067867;28;20051;-76
2022/04/22 01:15:02;;;;;;;5.82;5.32;;;;;;;;;;5071956;28;20043;-76
2022/04/22 01:17:31;;;;;;;6.47;5.88;;;;;;;;;;5064905;28;20048;-76
2022/04/22 01:19:59;;;;;;;9.48;6.75;;;;;;;;;;5065811;28;20055;-76
2022/04/22 01:22:27;;;;;;;9.05;6.70;;;;;;;;;;5075298;28;20044;-76
2022/04/22 01:24:59;;;;;;;6.10;5.57;;;;;;;;;;5074881;28;20048;-75
2022/04/22 01:27:29;;;;;;;9.60;6.43;;;;;;;;;;5085113;28;20063;-76
2022/04/22 01:29:58;;;;;;;7.78;6.22;;;;;;;;;;5085163;28;20769;-75
2022/04/22 01:32:27;;;;;;;7.00;6.00;;;;;;;;;;5083086;28;20048;-76
2022/04/22 01:34:55;;;;;;;8.07;6.70;;;;;;;;;;5081801;28;20051;-75
2022/04/22 01:37:23;;;;;;;8.15;6.30;;;;;;;;;;5088432;28;20040;-76
2022/04/22 01:39:51;;;;;;;8.00;5.80;;;;;;;;;;5089326;28;20051;-75
2022/04/22 01:42:19;;;;;;;6.80;6.20;;;;;;;;;;5089279;28;20495;-76
2022/04/22 01:44:47;;;;;;;8.40;5.78;;;;;;;;;;5072563;28;20049;-75
2022/04/22 01:47:15;;;;;;;6.93;5.30;;;;;;;;;;5068307;28;20044;-75
2022/04/22 01:49:43;;;;;;;7.20;6.50;;;;;;;;;;5086784;28;20468;-75
2022/04/22 01:52:13;;;;;;;8.45;5.95;;;;;;;;;;5088655;28;20044;-75
2022/04/22 01:54:46;;;;;;;8.18;6.88;;;;;;;;;;5068405;28;20054;-75
2022/04/22 01:57:14;;;;;;;7.25;6.38;;;;;;;;;;5079182;28;20055;-76
2022/04/22 01:59:44;;;;;;;7.15;6.45;;;;;;;;;;5070499;28;20052;-76
2022/04/22 02:02:12;;;;;;;8.35;7.13;;;;;;;;;;5068083;28;20453;-75
2022/04/22 02:04:40;;;;;;;7.68;6.93;;;;;;;;;;5067401;28;20398;-75
2022/04/22 02:07:08;;;;;;;12.63;5.70;;;;;;;;;;5049888;28;20048;-75
2022/04/22 02:09:36;;;;;;;10.05;8.00;;;;;;;;;;5050000;28;20045;-75
2022/04/22 02:12:05;;;;;;;8.77;7.45;;;;;;;;;;5068936;28;20067;-75
2022/04/22 02:14:36;;;;;;;9.63;6.95;;;;;;;;;;5067067;28;20528;-75
2022/04/22 02:17:05;;;;;;;9.98;6.90;;;;;;;;;;5076714;28;20495;-75
2022/04/22 02:19:33;;;;;;;7.30;5.78;;;;;;;;;;5065083;28;20044;-75
2022/04/22 02:22:01;;;;;;;7.18;5.75;;;;;;;;;;5067102;28;20044;-75
2022/04/22 02:24:29;;;;;;;8.85;7.28;;;;;;;;;;5068628;28;20393;-75
2022/04/22 02:29:44;;;;;;;8.32;5.82;;;;;;;;;;5067932;28;20044;-75
2022/04/22 02:32:12;;;;;;;9.25;7.57;;;;;;;;;;5066812;28;20063;-75
2022/04/22 02:34:40;;;;;;;8.35;6.10;;;;;;;;;;5055509;28;20051;-75
2022/04/22 02:37:08;;;;;;;8.40;6.05;;;;;;;;;;5078550;28;20063;-75
2022/04/22 02:39:36;;;;;;;8.30;6.38;;;;;;;;;;5070105;28;20044;-75
2022/04/22 02:47:40;;;;;;;11.70;7.50;;;;;;;;;;5048270;28;20501;-75
2022/04/22 02:50:08;;;;;;;7.07;5.90;;;;;;;;;;5046938;28;20056;-75
2022/04/22 02:52:36;;;;;;;7.60;6.85;;;;;;;;;;5070106;28;20048;-75
2022/04/22 02:55:04;;;;;;;7.90;5.82;;;;;;;;;;5067010;28;20057;-75
2022/04/22 02:57:32;;;;;;;8.52;6.97;;;;;;;;;;5066655;28;20040;-75
2022/04/22 03:00:01;;;;;;;7.32;5.95;;;;;;;;;;5050816;28;20051;-75
2022/04/22 03:02:29;;;;;;;7.97;6.88;;;;;;;;;;5066719;28;20047;-75
2022/04/22 03:04:58;;;;;;;5.43;4.78;;;;;;;;;;5067845;28;20044;-75
2022/04/22 03:07:26;;;;;;;8.48;7.10;;;;;;;;;;5064350;28;20068;-75
2022/04/22 03:09:54;;;;;;;8.68;7.68;;;;;;;;;;5066967;28;20044;-75
2022/04/22 03:12:22;;;;;;;14.27;7.43;;;;;;;;;;5067731;28;20044;-75
2022/04/22 03:14:51;;;;;;;9.13;6.55;;;;;;;;;;5066604;28;20047;-75
2022/04/22 03:17:19;;;;;;;9.70;8.32;;;;;;;;;;5066582;28;20036;-75
2022/04/22 03:19:48;;;;;;;11.25;9.27;;;;;;;;;;5067004;28;20060;-75
2022/04/22 03:22:16;;;;;;;11.25;6.97;;;;;;;;;;5066539;28;20047;-75
2022/04/22 03:24:44;;;;;;;11.60;7.20;;;;;;;;;;5084605;28;20481;-75
2022/04/22 03:27:14;;;;;;;8.32;7.43;;;;;;;;;;5067190;28;20044;-75
2022/04/22 03:29:49;;;;;;;6.15;5.53;;;;;;;;;;5066186;28;20033;-75
2022/04/22 03:32:17;;;;;;;10.65;7.07;;;;;;;;;;5046989;28;20047;-75
2022/04/22 03:34:45;;;;;;;18.45;7.45;;;;;;;;;;5072991;28;20415;-76
2022/04/22 03:37:13;;;;;;;9.02;6.70;;;;;;;;;;5083883;28;20044;-75
2022/04/22 03:39:41;;;;;;;7.38;6.57;;;;;;;;;;5081514;28;20055;-75
2022/04/22 03:42:09;;;;;;;14.23;7.20;;;;;;;;;;5066325;28;20055;-75
2022/04/22 03:44:37;;;;;;;15.30;6.65;;;;;;;;;;5067277;28;20052;-75
2022/04/22 03:47:07;;;;;;;8.93;7.43;;;;;;;;;;5066357;28;20449;-75
2022/04/22 03:49:35;;;;;;;9.85;8.57;;;;;;;;;;5066292;28;20580;-75
2022/04/22 03:52:04;;;;;;;9.95;7.47;;;;;;;;;;5071318;28;20483;-75
2022/04/22 03:54:32;;;;;;;9.18;7.03;;;;;;;;;;5071545;28;20052;-75
2022/04/22 03:59:47;;;;;;;7.57;5.28;;;;;;;;;;5064116;28;20048;-75
2022/04/22 04:02:15;;;;;;;8.30;6.25;;;;;;;;;;5066046;28;20036;-75
2022/04/22 04:04:43;;;;;;;9.52;6.63;;;;;;;;;;5074539;28;20050;-75
2022/04/22 04:07:11;;;;;;;8.07;6.80;;;;;;;;;;5079208;28;20051;-75
2022/04/22 04:18:13;;;;;;;8.85;7.32;;;;;;;;;;5065514;28;20039;-75
2022/04/22 04:23:28;;;;;;;7.07;5.45;;;;;;;;;;5085565;28;20481;-75
2022/04/22 04:25:56;;;;;;;12.00;6.53;;;;;;;;;;5085767;28;20048;-75
2022/04/22 04:28:27;;;;;;;15.25;6.07;;;;;;;;;;5067618;28;20051;-74
2022/04/22 04:30:56;;;;;;;10.05;6.57;;;;;;;;;;5082394;28;20048;-74
2022/04/22 04:33:24;;;;;;;6.82;5.82;;;;;;;;;;5066913;28;20048;-75
2022/04/22 04:35:52;;;;;;;13.35;9.07;;;;;;;;;;5086340;28;20055;-74
2022/04/22 04:38:21;;;;;;;20.75;6.68;;;;;;;;;;5074448;28;20604;-74
2022/04/22 04:40:52;;;;;;;9.18;7.93;;;;;;;;;;5068688;28;20032;-83
2022/04/22 04:43:21;;;;;;;14.98;8.30;;;;;;;;;;5067485;28;20048;-74
2022/04/22 04:45:50;;;;;;;9.93;6.20;;;;;;;;;;5046620;28;20045;-75
2022/04/22 04:48:18;;;;;;;16.67;8.93;;;;;;;;;;5065379;28;20052;-74
2022/04/22 04:50:47;;;;;;;12.50;6.80;;;;;;;;;;5065400;28;20051;-75
2022/04/22 04:53:15;;;;;;;11.15;9.93;;;;;;;;;;5064918;28;20055;-75
2022/04/22 04:55:43;;;;;;;10.35;8.88;;;;;;;;;;5070361;28;20056;-74
2022/04/22 04:58:11;;;;;;;12.57;9.70;;;;;;;;;;5084977;28;20601;-74
2022/04/22 05:00:39;;;;;;;7.20;6.38;;;;;;;;;;5076738;28;20052;-75
2022/04/22 05:03:07;;;;;;;11.80;8.93;;;;;;;;;;5065792;28;20040;-75
2022/04/22 05:05:38;;;;;;;11.27;7.28;;;;;;;;;;5071271;28;20127;-74
2022/04/22 05:08:09;;;;;;;12.05;8.48;;;;;;;;;;5066452;28;20044;-74
2022/04/22 05:10:40;;;;;;;7.72;6.78;;;;;;;;;;5069269;28;20036;-75
2022/04/22 05:13:09;;;;;;;11.25;7.75;;;;;;;;;;5066284;28;20048;-74
2022/04/22 05:15:39;;;;;;;8.55;7.70;;;;;;;;;;5037106;28;20489;-75
2022/04/22 05:18:08;;;;;;;19.95;9.82;;;;;;;;;;5066305;28;20770;-75
2022/04/22 05:20:41;;;;;;;12.10;9.02;;;;;;;;;;5065515;28;20048;-74
2022/04/22 05:23:10;;;;;;;32.30;11.15;;;;;;;;;;5077433;28;20052;-75
2022/04/22 05:25:38;;;;;;;35.30;16.50;;;;;;;;;;5066148;28;20044;-75
2022/04/22 05:28:07;;;;;;;39.95;17.95;;;;;;;;;;5063391;28;20543;-75
2022/04/22 05:33:22;;;;;;;31.98;14.82;;;;;;;;;;5069420;28;20256;-75
2022/04/22 05:35:53;;;;;;;32.30;15.32;;;;;;;;;;5068323;28;20044;-74
2022/04/22 05:38:24;;;;;;;38.50;16.23;;;;;;;;;;5067141;28;20044;-74
2022/04/22 05:40:52;;;;;;;36.08;16.33;;;;;;;;;;5066136;28;20044;-75
2022/04/22 05:43:20;;;;;;;13.07;8.07;;;;;;;;;;5064080;28;20044;-75
2022/04/22 05:45:49;;;;;;;10.40;8.30;;;;;;;;;;5067702;28;20052;-75
2022/04/22 05:48:17;;;;;;;19.10;13.27;;;;;;;;;;5067211;28;20044;-77
2022/04/22 05:50:45;;;;;;;14.73;10.70;;;;;;;;;;5068055;28;20037;-77
2022/04/22 05:53:13;;;;;;;12.48;10.25;;;;;;;;;;5065663;28;20052;-78
2022/04/22 05:55:42;;;;;;;13.95;8.43;;;;;;;;;;5069641;28;20053;-77
2022/04/22 05:58:10;;;;;;;12.50;9.65;;;;;;;;;;5062821;28;20533;-77
2022/04/22 06:00:38;;;;;;;10.57;8.82;;;;;;;;;;5067629;28;20071;-77
2022/04/22 06:03:07;;;;;;;10.52;7.00;;;;;;;;;;5064610;28;20037;-77
2022/04/22 06:05:35;;;;;;;10.43;8.30;;;;;;;;;;5064717;28;20048;-77
2022/04/22 06:10:55;;;;;;;9.85;7.93;;;;;;;;;;5076941;28;20477;-77
2022/04/22 06:13:23;;;;;;;10.93;8.02;;;;;;;;;;5082800;28;20036;-77
2022/04/22 06:15:51;;;;;;;6.90;5.63;;;;;;;;;;5064632;28;20051;-77
2022/04/22 06:18:19;;;;;;;9.35;8.45;;;;;;;;;;5070590;28;20040;-77
2022/04/22 06:20:48;;;;;;;9.38;8.38;;;;;;;;;;5077858;28;20055;-77
2022/04/22 06:23:17;;;;;;;9.05;7.85;;;;;;;;;;5069738;28;20041;-77
2022/04/22 06:25:48;;;;;;;15.52;10.38;;;;;;;;;;5074976;28;20045;-77
2022/04/22 06:28:16;;;;;;;13.30;9.67;;;;;;;;;;5065840;28;20060;-77
2022/04/22 06:30:46;;;;;;;12.00;6.93;;;;;;;;;;5049345;28;20818;-77
2022/04/22 06:33:16;;;;;;;9.50;8.65;;;;;;;;;;5047074;28;20044;-78
2022/04/22 06:35:46;;;;;;;9.55;7.05;;;;;;;;;;5070331;28;20067;-77
2022/04/22 06:38:18;;;;;;;7.50;6.70;;;;;;;;;;5086922;28;20036;-77
2022/04/22 06:46:20;;;;;;;11.77;8.02;;;;;;;;;;5067362;28;20044;-77
2022/04/22 06:48:48;;;;;;;9.60;7.43;;;;;;;;;;5068139;28;20067;-77
2022/04/22 06:51:17;;;;;;;8.68;7.68;;;;;;;;;;5064565;28;20052;-77
2022/04/22 06:53:48;;;;;;;7.50;6.53;;;;;;;;;;5080278;28;20036;-78
2022/04/22 06:56:22;;;;;;;9.68;7.57;;;;;;;;;;5084109;28;20591;-76
2022/04/22 06:58:52;;;;;;;7.93;6.32;;;;;;;;;;5067632;28;20040;-76
2022/04/22 07:01:20;;;;;;;9.80;8.02;;;;;;;;;;5070147;28;20041;-76
2022/04/22 07:04:09;;;;;;;8.25;6.93;;;;;;;;;;5067524;28;20037;-76
2022/04/22 07:06:43;;;;;;;10.60;8.45;;;;;;;;;;5054029;28;20056;-78
2022/04/22 07:09:13;;;;;;;9.38;7.60;;;;;;;;;;5049139;28;20068;-78
2022/04/22 07:11:42;;;;;;;9.18;7.65;;;;;;;;;;5068922;28;20048;-78
2022/04/22 07:14:10;;;;;;;12.82;9.38;;;;;;;;;;5066928;28;20044;-77
2022/04/22 07:16:43;;;;;;;7.25;6.55;;;;;;;;;;5065583;28;20049;-78
2022/04/22 07:19:12;;;;;;;10.63;7.78;;;;;;;;;;5032179;28;20039;-78
2022/04/22 07:21:40;;;;;;;8.63;7.13;;;;;;;;;;5068418;28;20040;-78
2022/04/22 07:24:08;;;;;;;7.78;7.05;;;;;;;;;;5071183;28;20047;-78
2022/04/22 07:26:37;;;;;;;7.85;6.60;;;;;;;;;;5070408;28;20040;-77
2022/04/22 07:29:09;;;;;;;7.97;7.18;;;;;;;;;;5079352;28;20055;-78
2022/04/22 07:31:37;;;;;;;;;;;;;;;;;;5048796;28;20056;-78
2022/04/22 07:34:05;;;;;;;9.13;7.35;;;;;;;;;;5073786;28;20490;-77
2022/04/22 07:36:33;;;;;;;7.97;7.28;;;;;;;;;;5067009;28;20135;-76
2022/04/22 07:39:01;;;;;;;8.68;6.90;;;;;;;;;;5066341;28;20059;-76
2022/04/22 07:41:29;;;;;;;6.60;5.38;;;;;;;;;;5069241;28;20041;-77
2022/04/22 07:46:48;;;;;;;11.80;6.97;;;;;;;;;;5065977;28;20051;-77
2022/04/22 07:49:17;;;;;;;10.18;7.22;;;;;;;;;;5048195;28;20040;-79
2022/04/22 07:51:45;;;;;;;7.20;6.03;;;;;;;;;;5048278;28;20064;-77
2022/04/22 07:54:14;;;;;;;10.18;5.97;;;;;;;;;;5076385;28;20055;-78
2022/04/22 07:56:42;;;;;;;9.05;6.30;;;;;;;;;;5086779;28;20063;-77
2022/04/22 07:59:11;;;;;;;8.18;6.40;;;;;;;;;;5068150;28;20071;-77
2022/04/22 08:01:39;;;;;;;10.27;8.30;;;;;;;;;;5049808;28;20776;-77
2022/04/22 08:04:10;;;;;;;10.77;9.75;;;;;;;;;;5048882;28;20052;-76
2022/04/22 08:06:38;;;;;;;9.10;7.78;;;;;;;;;;5064770;28;20044;-77
2022/04/22 08:09:06;;;;;;;7.55;6.70;;;;;;;;;;5048124;28;20395;-76
2022/04/22 08:11:35;;;;;;;9.95;8.60;;;;;;;;;;5048245;28;20040;-79
2022/04/22 08:14:03;;;;;;;6.10;5.40;;;;;;;;;;5076288;28;20036;-77
2022/04/22 08:16:31;;;;;;;8.95;6.80;;;;;;;;;;5066222;28;20051;-77
2022/04/22 08:19:00;;;;;;;9.85;7.05;;;;;;;;;;5064993;28;20516;-77
2022/04/22 08:21:33;;;;;;;9.80;8.65;;;;;;;;;;5055488;28;20761;-76
2022/04/22 08:24:02;;;;;;;8.15;6.60;;;;;;;;;;5068393;28;20466;-77
2022/04/22 08:26:34;;;;;;;8.02;7.22;;;;;;;;;;5064956;28;20048;-77
2022/04/22 08:29:06;;;;;;;10.90;8.18;;;;;;;;;;5066362;28;20040;-77
2022/04/22 08:31:34;;;;;;;6.88;5.82;;;;;;;;;;5060064;28;20055;-78
2022/04/22 08:34:02;;;;;;;8.68;7.05;;;;;;;;;;5078081;28;20056;-77
2022/04/22 08:36:31;;;;;;;11.73;7.03;;;;;;;;;;5079096;28;20056;-77
2022/04/22 08:39:04;;;;;;;7.13;6.18;;;;;;;;;;5068736;28;20507;-77
2022/04/22 08:41:40;;;;;;;13.40;8.05;;;;;;;;;;5079857;28;20051;-81
2022/04/22 08:44:12;;;;;;;8.55;7.75;;;;;;;;;;5074062;28;20040;-82
2022/04/22 08:52:15;;;;;;;8.48;7.70;;;;;;;;;;5059388;28;20072;-82
2022/04/22 08:54:45;;;;;;;7.13;6.40;;;;;;;;;;5072840;28;20055;-82
2022/04/22 08:57:13;;;;;;;7.45;6.70;;;;;;;;;;5055912;28;20052;-82
2022/04/22 08:59:41;;;;;;;9.80;7.13;;;;;;;;;;5069438;28;20052;-83
2022/04/22 09:02:10;;;;;;;8.65;6.93;;;;;;;;;;5051658;28;20039;-82
2022/04/22 09:04:38;;;;;;;8.80;7.90;;;;;;;;;;5031013;28;20051;-83
2022/04/22 09:07:10;;;;;;;7.80;6.75;;;;;;;;;;5054829;28;20045;-84
2022/04/22 09:09:40;;;;;;;8.43;7.43;;;;;;;;;;5057977;28;20040;-84
2022/04/22 09:12:10;;;;;;;7.03;6.27;;;;;;;;;;5033460;28;20071;-84
2022/04/22 09:14:45;;;;;;;7.75;6.13;;;;;;;;;;5068849;28;20052;-82
2022/04/22 09:17:17;;;;;;;17.60;7.00;;;;;;;;;;5076026;28;20067;-82
2022/04/22 09:19:45;;;;;;;7.75;7.05;;;;;;;;;;5041854;28;20481;-83
2022/04/22 09:22:21;;;;;;;13.02;7.28;;;;;;;;;;5071951;28;20041;-83
2022/04/22 09:24:50;;;;;;;8.20;6.30;;;;;;;;;;5048557;28;20098;-83
2022/04/22 09:27:18;;;;;;;8.13;6.45;;;;;;;;;;5051480;28;20124;-83
2022/04/22 09:29:54;;;;;;;10.13;7.53;;;;;;;;;;5053123;28;20056;-83
2022/04/22 09:32:26;;;;;;;10.25;6.75;;;;;;;;;;5076846;28;20048;-83
2022/04/22 09:34:58;;;;;;;9.85;7.97;;;;;;;;;;5083620;28;20572;-83
2022/04/22 09:43:18;;;;;;;9.40;7.88;;;;;;;;;;4946749;28;20042;-83
2022/04/22 09:45:48;;;;;;;9.60;7.78;;;;;;;;;;5018428;28;20047;-84
2022/04/22 09:48:22;;;;;;;7.97;7.15;;;;;;;;;;5039488;28;20055;-84
2022/04/22 09:50:54;;;;;;;9.25;7.13;;;;;;;;;;5069567;28;20083;-83
2022/04/22 09:53:36;;;;;;;12.35;8.07;;;;;;;;;;5041583;28;20044;-83
2022/04/22 09:56:08;;;;;;;7.70;7.00;;;;;;;;;;5048988;28;20056;-84
2022/04/22 09:58:36;;;;;;;8.88;6.80;;;;;;;;;;5065662;28;20044;-84
2022/04/22 10:01:06;;;;;;;7.55;6.78;;;;;;;;;;5041552;28;20058;-84
2022/04/22 10:03:35;;;;;;;8.10;6.90;;;;;;;;;;5077314;28;20047;-84
2022/04/22 10:06:05;;;;;;;8.20;7.40;;;;;;;;;;5042046;28;20044;-83
2022/04/22 10:08:36;;;;;;;7.63;6.85;;;;;;;;;;5071159;28;20052;-84
2022/04/22 10:11:05;;;;;;;7.05;6.22;;;;;;;;;;5045157;28;20763;-84
2022/04/22 10:13:40;;;;;;;8.80;7.03;;;;;;;;;;5044084;28;20063;-83
2022/04/22 10:16:10;;;;;;;9.98;8.30;;;;;;;;;;5020707;28;20662;-84
2022/04/22 10:18:39;;;;;;;5.90;4.78;;;;;;;;;;5049436;28;20044;-84
2022/04/22 10:21:07;;;;;;;7.65;6.70;;;;;;;;;;5058893;28;20044;-84
2022/04/22 10:23:42;;;;;;;7.30;6.30;;;;;;;;;;5059131;28;20521;-84
2022/04/22 10:26:10;;;;;;;6.50;5.93;;;;;;;;;;5060771;28;20036;-85
2022/04/22 10:28:39;;;;;;;10.20;8.18;;;;;;;;;;5081653;28;20052;-84
2022/04/22 10:31:07;;;;;;;13.65;7.32;;;;;;;;;;5055900;28;20048;-84
2022/04/22 10:33:39;;;;;;;7.00;6.28;;;;;;;;;;5056388;28;20048;-84
2022/04/22 10:36:08;;;;;;;6.38;5.43;;;;;;;;;;5023325;28;20051;-84
2022/04/22 10:43:43;;;;;;;11.32;6.32;;;;;;;;;;4873212;29;20056;-93
2022/04/22 10:47:39;;;;;;;8.32;7.45;;;;;;;;;;4865185;29;20044;-92
2022/04/22 10:50:31;;;;;;;11.18;7.97;;;;;;;;;;4851898;29;20045;-93
2022/04/22 10:53:51;;;;;;;;;;;;;;;;;;;;;
2022/04/22 10:57:24;;;;;;;8.18;6.97;;;;;;;;;;4872467;29;20040;-92
2022/04/22 11:01:08;;;;;;;8.35;7.60;;;;;;;;;;4848690;29;20802;-91
2022/04/22 11:03:56;;;;;;;11.70;8.80;;;;;;;;;;4872620;29;20060;-92
2022/04/22 11:20:09;;;;;;;10.02;7.68;;;;;;;;;;5184957;23;20050;-89
2022/04/22 11:34:10;;;;;;;13.93;7.18;;;;;;;;;;4764460;23;20461;-92
2022/04/22 11:38:32;;;;;;;10.88;7.10;;;;;;;;;;4960176;28;20038;-93
2022/04/22 11:41:14;;;;;;;7.20;6.20;;;;;;;;;;4941493;28;20046;-91
2022/04/22 11:44:11;;;;;;;10.70;8.20;;;;;;;;;;4953050;28;20046;-92
2022/04/22 11:47:19;;;;;;;7.22;6.47;;;;;;;;;;4893146;29;20100;-92
2022/04/22 12:06:43;;;;;;;9.77;7.50;;;;;;;;;;4806716;29;20204;-92
2022/04/22 12:09:41;;;;;;;;;;;;;;;;;;;;;
2022/04/22 12:12:13;;;;;;;7.75;6.40;;;;;;;;;;4813576;29;20053;-91
2022/04/22 12:15:50;;;;;;;5.65;5.07;;;;;;;;;;4801457;29;20045;-88
2022/04/22 12:19:03;;;;;;;14.07;7.40;;;;;;;;;;4835313;29;20056;-92
2022/04/22 12:26:00;;;;;;;11.80;6.88;;;;;;;;;;4802332;29;20046;-92
2022/04/22 12:29:19;;;;;;;9.23;6.57;;;;;;;;;;4817288;29;20061;-93
2022/04/22 12:40:11;;;;;;;8.05;7.25;;;;;;;;;;4836878;29;20049;-90
2022/04/22 12:58:12;;;;;;;10.10;8.90;;;;;;;;;;4911484;29;20042;-90
2022/04/22 13:09:44;;;;;;;16.77;9.90;;;;;;;;;;4974294;28;20070;-90
2022/04/22 14:04:26;;;;;;;14.63;7.28;;;;;;;;;;4534560;31;20060;-89
2022/04/22 14:08:19;;;;;;;9.13;6.90;;;;;;;;;;4548954;31;20075;-89
2022/04/22 14:16:50;;;;;;;;;;;;;;;;;;;;;
2022/04/22 14:29:05;;;;;;;9.18;6.85;;;;;;;;;;4610007;30;20050;-91
2022/04/22 14:32:09;;;;;;;10.73;7.97;;;;;;;;;;4597843;30;20052;-89
2022/04/22 14:34:44;;;;;;;8.52;6.70;;;;;;;;;;4627227;30;20524;-88
2022/04/22 14:37:51;;;;;;;15.98;8.02;;;;;;;;;;4635149;30;20046;-88
2022/04/22 14:40:51;;;;;;;10.15;7.40;;;;;;;;;;4642773;30;20049;-87
2022/04/22 14:43:37;;;;;;;9.20;7.30;;;;;;;;;;4660451;30;20092;-87
2022/04/22 14:46:08;;;;;;;8.85;7.25;;;;;;;;;;4636896;30;20050;-88
2022/04/22 14:53:07;;;;;;;8.48;7.57;;;;;;;;;;4660285;30;20065;-87
2022/04/22 14:55:45;;;;;;;9.55;7.93;;;;;;;;;;4680454;30;20058;-88
2022/04/22 14:59:10;;;;;;;8.95;6.70;;;;;;;;;;4673883;30;20054;-90
2022/04/22 15:02:09;;;;;;;9.88;7.88;;;;;;;;;;4646434;30;20533;-88
2022/04/22 15:04:44;;;;;;;12.00;7.32;;;;;;;;;;4678705;30;20058;-90
2022/04/22 15:07:12;;;;;;;9.90;7.45;;;;;;;;;;4660613;30;20058;-89
2022/04/22 15:09:47;;;;;;;18.40;8.73;;;;;;;;;;4684858;30;20049;-89
2022/04/22 15:12:18;;;;;;;19.63;7.13;;;;;;;;;;4706969;30;20098;-89
2022/04/22 15:14:46;;;;;;;8.23;7.15;;;;;;;;;;4692635;30;20061;-83
2022/04/22 15:17:14;;;;;;;9.38;6.68;;;;;;;;;;4692184;30;20061;-82
2022/04/22 15:25:16;;;;;;;9.77;8.88;;;;;;;;;;4685814;30;20434;-87
2022/04/22 15:27:44;;;;;;;11.10;7.75;;;;;;;;;;4677406;30;20061;-86
2022/04/22 15:30:12;;;;;;;8.82;6.50;;;;;;;;;;4678829;30;20052;-88
2022/04/22 15:32:41;;;;;;;8.43;6.05;;;;;;;;;;4680242;30;20057;-86
2022/04/22 15:35:09;;;;;;;10.00;5.70;;;;;;;;;;4680710;30;20064;-83
2022/04/22 15:37:37;;;;;;;7.70;5.88;;;;;;;;;;4695121;30;20060;-83
2022/04/22 15:40:05;;;;;;;6.80;6.10;;;;;;;;;;4679465;30;20066;-83
2022/04/22 15:42:35;;;;;;;6.90;5.75;;;;;;;;;;4694790;30;20057;-82
2022/04/22 15:45:04;;;;;;;7.65;6.85;;;;;;;;;;4679761;30;20053;-85
2022/04/22 15:47:33;;;;;;;8.05;6.07;;;;;;;;;;4693682;30;20060;-84
2022/04/22 15:50:03;;;;;;;35.15;9.50;;;;;;;;;;4679206;30;20057;-85
2022/04/22 15:52:40;;;;;;;10.57;6.28;;;;;;;;;;4665109;30;20069;-84
2022/04/22 15:55:10;;;;;;;5.90;5.32;;;;;;;;;;4711780;30;20606;-84
2022/04/22 15:57:38;;;;;;;5.32;4.53;;;;;;;;;;4710713;30;20061;-80
2022/04/22 16:00:13;;;;;;;7.10;5.35;;;;;;;;;;4697192;30;20069;-85
2022/04/22 16:02:41;;;;;;;4.88;4.35;;;;;;;;;;4696221;30;20063;-87
2022/04/22 16:05:13;;;;;;;6.07;5.05;;;;;;;;;;4696803;30;20072;-85
2022/04/22 16:07:47;;;;;;;6.05;5.45;;;;;;;;;;4693879;30;20760;-85
2022/04/22 16:10:15;;;;;;;6.25;4.65;;;;;;;;;;4695996;30;20049;-87
2022/04/22 16:15:30;;;;;;;9.13;7.72;;;;;;;;;;4711587;30;20088;-86
2022/04/22 16:17:59;;;;;;;11.88;7.85;;;;;;;;;;4695947;30;20056;-84
2022/04/22 16:20:28;;;;;;;7.78;6.97;;;;;;;;;;4694909;30;20052;-87
2022/04/22 16:22:57;;;;;;;7.47;6.50;;;;;;;;;;4681296;30;20061;-85
2022/04/22 16:25:26;;;;;;;7.82;7.03;;;;;;;;;;4681033;30;20065;-86
2022/04/22 16:27:55;;;;;;;8.93;8.07;;;;;;;;;;4681511;30;20064;-87
2022/04/22 16:30:25;;;;;;;9.68;6.72;;;;;;;;;;4681698;30;20049;-86
2022/04/22 16:32:53;;;;;;;7.93;6.00;;;;;;;;;;4692946;30;20135;-84
2022/04/22 16:35:22;;;;;;;11.57;7.85;;;;;;;;;;4676790;30;20061;-86
2022/04/22 16:37:52;;;;;;;9.20;7.57;;;;;;;;;;4695561;30;20053;-84
2022/04/22 16:40:26;;;;;;;12.65;7.30;;;;;;;;;;4710415;30;20420;-84
2022/04/22 16:42:55;;;;;;;8.65;6.47;;;;;;;;;;4710262;30;20045;-87
2022/04/22 16:45:28;;;;;;;8.02;6.75;;;;;;;;;;4716719;30;20049;-84
2022/04/22 16:48:02;;;;;;;6.78;6.20;;;;;;;;;;4708893;30;20061;-85
2022/04/22 16:50:32;;;;;;;6.50;5.88;;;;;;;;;;4708607;30;20053;-85
2022/04/22 16:53:02;;;;;;;6.85;5.22;;;;;;;;;;4708859;30;20053;-87
2022/04/22 16:55:40;;;;;;;8.35;5.32;;;;;;;;;;4708625;30;20057;-84
2022/04/22 16:59:06;;;;;;;10.63;5.57;;;;;;;;;;4695148;30;20091;-84
2022/04/22 17:01:35;;;;;;;8.68;5.15;;;;;;;;;;4693407;30;20049;-85
2022/04/22 17:04:03;;;;;;;6.97;5.65;;;;;;;;;;4676614;30;20068;-85
2022/04/22 17:06:31;;;;;;;8.38;5.60;;;;;;;;;;4676342;30;20532;-88
2022/04/22 17:09:01;;;;;;;7.22;5.40;;;;;;;;;;4688488;30;20068;-86
2022/04/22 17:11:29;;;;;;;7.68;5.55;;;;;;;;;;4694012;30;20049;-84
2022/04/22 17:22:40;;;;;;;11.15;6.13;;;;;;;;;;4688455;30;20049;-87
2022/04/22 17:25:09;;;;;;;7.32;6.13;;;;;;;;;;4691194;30;20064;-87
2022/04/22 17:27:39;;;;;;;6.85;6.18;;;;;;;;;;4676569;30;20058;-82
2022/04/22 17:30:16;;;;;;;6.88;6.25;;;;;;;;;;4659378;30;20139;-86
2022/04/22 17:32:54;;;;;;;8.27;6.72;;;;;;;;;;4706301;30;20057;-84
2022/04/22 17:35:24;;;;;;;7.05;6.40;;;;;;;;;;4707047;30;20069;-85
2022/04/22 17:37:58;;;;;;;8.50;7.75;;;;;;;;;;4707998;30;20064;-86
2022/04/22 17:40:28;;;;;;;7.35;5.50;;;;;;;;;;4717595;30;20061;-86
2022/04/22 17:43:05;;;;;;;12.43;5.93;;;;;;;;;;4704609;30;20056;-87
2022/04/22 17:45:43;;;;;;;7.95;7.10;;;;;;;;;;4686219;30;20045;-89
2022/04/22 17:48:13;;;;;;;7.30;6.00;;;;;;;;;;4680272;30;20081;-85
2022/04/22 17:50:41;;;;;;;7.40;6.70;;;;;;;;;;4690097;30;20053;-84
2022/04/22 17:53:09;;;;;;;7.30;6.15;;;;;;;;;;4709791;30;20053;-87
2022/04/22 17:55:44;;;;;;;31.08;10.80;;;;;;;;;;4694930;30;20065;-89
2022/04/22 17:58:17;;;;;;;9.70;6.43;;;;;;;;;;4694991;30;20060;-88
2022/04/22 18:00:45;;;;;;;9.77;7.40;;;;;;;;;;4667399;30;20065;-88
2022/04/22 18:03:14;;;;;;;9.93;8.60;;;;;;;;;;4710866;30;20056;-86
2022/04/22 18:05:59;;;;;;;7.45;6.75;;;;;;;;;;4710952;30;20518;-89
2022/04/22 18:08:28;;;;;;;8.35;7.00;;;;;;;;;;4695093;30;20496;-84
2022/04/22 18:10:57;;;;;;;7.85;7.05;;;;;;;;;;4694858;30;20045;-81
2022/04/22 18:13:25;;;;;;;8.77;7.97;;;;;;;;;;4693989;30;20488;-83
2022/04/22 18:18:41;;;;;;;12.73;8.30;;;;;;;;;;4713371;30;20056;-85
2022/04/22 18:21:11;;;;;;;9.07;7.05;;;;;;;;;;4698049;30;20072;-83
2022/04/22 18:23:39;;;;;;;9.32;8.20;;;;;;;;;;4695566;30;20412;-84
2022/04/22 18:26:08;;;;;;;9.10;8.20;;;;;;;;;;4669661;30;20057;-82
2022/04/22 18:28:36;;;;;;;11.10;9.73;;;;;;;;;;4694762;30;20059;-84
2022/04/22 18:31:05;;;;;;;9.95;9.00;;;;;;;;;;4694471;30;20057;-82
2022/04/22 18:33:35;;;;;;;10.95;9.93;;;;;;;;;;4694026;30;20065;-83
2022/04/22 18:36:04;;;;;;;10.02;9.02;;;;;;;;;;4680371;30;20068;-83
2022/04/22 18:38:32;;;;;;;8.43;7.45;;;;;;;;;;4684070;30;20054;-84
2022/04/22 18:41:02;;;;;;;9.15;7.15;;;;;;;;;;4695108;30;20045;-81
2022/04/22 18:43:32;;;;;;;11.27;9.77;;;;;;;;;;4685595;30;20058;-81
2022/04/22 18:46:02;;;;;;;11.00;9.93;;;;;;;;;;4700134;30;20050;-80
2022/04/22 18:48:31;;;;;;;11.68;9.20;;;;;;;;;;4686021;30;20053;-82
2022/04/22 18:51:01;;;;;;;9.98;8.82;;;;;;;;;;4701637;30;20045;-80
2022/04/22 18:53:30;;;;;;;13.52;9.32;;;;;;;;;;4705497;30;20065;-79
2022/04/22 18:55:58;;;;;;;12.85;9.80;;;;;;;;;;4692559;30;20057;-80
2022/04/22 18:58:28;;;;;;;8.10;7.28;;;;;;;;;;4689329;30;20068;-79
2022/04/22 19:00:58;;;;;;;10.68;9.40;;;;;;;;;;4708102;30;20061;-80
2022/04/22 19:03:28;;;;;;;12.38;10.07;;;;;;;;;;4674097;30;20774;-79
2022/04/22 19:06:01;;;;;;;9.35;8.35;;;;;;;;;;4708717;30;20060;-79